Airfield :
LOGIN :

Register | Disclaimer

   EN    FR    IT 

 










Legend :    VFR   Marginal VFR   IFR   Intensive IFR   Very Intensive IFR
Visi :
Ceiling :
>= 8 km
>= 3000ft
5 to 8 km
1000 to 3000 ft
1500m to 5 km
500 to 1000 ft
800 to 1500m
200 to 500 ft
< 800m
< 200 ft
Symbols :   Thunderstorms  Fog  Heavy snow  Heavy precipitations  Wind > 20 kt
SIGMETs :     Misc.  Thunderstorms  Icing  Turbulence  Mountain Waves  Volcanic Ashes






- Airport Elevation : 1260 ft
- IATA code : LDE


LFBT - Tarbes / Ossun

CURRENT METAR :
  • 192100Z AUTO 33006KT 9999 BKN026/// BKN033/// OVC060/// ///CB 20/18 Q1014 TEMPO 4000 SHRA BKN008

EXPIRED METARs :
  • 192030Z AUTO 28005KT 9999 BKN025/// BKN068/// BKN088/// ///CB 20/18 Q1013 TEMPO 4000 SHRA BKN008
  • 192000Z AUTO 32009KT 280V350 9999 VCTS BKN029/// BKN038/// BKN054/// ///CB 21/18 Q1013 TEMPO 4000 SHRA
  • 191930Z AUTO 01007KT 330V050 9999 TS FEW030/// BKN035/// BKN043/// ///CB 23/17 Q1013 TEMPO 4000 SHRA
  • 191900Z AUTO 36011KT 9999 BKN032 BKN041 OVC100 23/17 Q1012 TEMPO 4000 SHRA BKN045TCU SCT050CB BKN070 BECMG 29005KT
  • 191830Z AUTO 35010KT 9999 SCT031 BKN041 BKN110 24/18 Q1012 TEMPO 4000 SHRA BKN045TCU SCT050CB BKN070 BECMG 29005KT

TAF AMD TAF LFBT
Valid from the 19 at 20:00 until the 20 at 18:00 UTC


192006Z 1920/2018 29005KT 9999 SCT035
TEMPO 1920/1922 4000 SHRA BKN045TCU SCT050CB BKN070
PROB40
TEMPO 1920/1921 VRB15G25KT 2000 TSRA FEW010 BKN030CB
BECMG 1921/1923 BKN018
TEMPO 1921/2005 BKN008
PROB30
TEMPO 2005/2008 4000 TSRA BKN015 BKN070CB
TEMPO 2013/2018 4000 SHRA BKN050TCU



MET'MAP, your aeronautical weather chart ! - Copyright ORBIFLY December 2007 - Disclaimer

ORBIFLY MET'MAP TEAM :

Programming & Development : Alexandra Zaïnal
Concept & original design : Baudouin d'Aumeries
Assistance for programming : Marc-Olivier Méhu
Technical & hardware support : Manuel Goepfert

Contact : metmap@orbifly.com




SOURCES & CREDITS :

   NOAA